createdAt,value
2019-05-07T00:00:48.271Z,18.58
2019-05-07T00:01:51.364Z,18.58
2019-05-07T00:02:49.242Z,18.49
2019-05-07T00:03:48.233Z,18.58
2019-05-07T00:04:48.232Z,17.58
2019-05-07T00:05:48.210Z,18.59
2019-05-07T00:06:48.203Z,18.58
2019-05-07T00:07:48.188Z,18.38
2019-05-07T00:08:48.181Z,18.38
2019-05-07T00:09:48.208Z,18.58
2019-05-07T00:10:48.169Z,18.38
2019-05-07T00:11:48.146Z,18.58
2019-05-07T00:12:48.138Z,18.58
2019-05-07T00:13:48.123Z,18.38
2019-05-07T00:14:58.988Z,18.28
2019-05-07T00:15:59.543Z,17.58
2019-05-07T00:16:48.092Z,18.28
2019-05-07T00:17:48.083Z,18.68
2019-05-07T00:18:48.065Z,18.29
2019-05-07T00:19:48.056Z,18.48
2019-05-07T00:20:48.044Z,18.29
2019-05-07T00:21:48.054Z,18.28
2019-05-07T00:22:48.023Z,18.29
2019-05-07T00:23:48.009Z,18.39
2019-05-07T00:24:47.996Z,18.38
2019-05-07T00:25:47.990Z,18.39
2019-05-07T00:26:47.980Z,18.29
2019-05-07T00:27:47.975Z,18.38
2019-05-07T00:28:47.957Z,18.39
2019-05-07T00:29:47.942Z,18.39
2019-05-07T00:30:47.929Z,18.49
2019-05-07T00:31:47.918Z,18.39
2019-05-07T00:32:47.918Z,18.39
2019-05-07T00:33:47.935Z,18.39
2019-05-07T00:34:47.890Z,18.59
2019-05-07T00:35:47.875Z,18.39
2019-05-07T00:36:47.866Z,18.28
2019-05-07T00:37:47.858Z,18.29
2019-05-07T00:38:47.847Z,18.49
2019-05-07T00:39:47.871Z,18.59
2019-05-07T00:40:47.825Z,18.49
2019-05-07T00:41:47.807Z,18.38
2019-05-07T00:42:47.798Z,18.59
2019-05-07T00:43:47.786Z,17.49
2019-05-07T00:44:47.782Z,18.69
2019-05-07T00:45:47.811Z,18.38
2019-05-07T00:46:57.861Z,17.79
2019-05-07T00:47:47.740Z,18.69
2019-05-07T00:48:47.734Z,18.59
2019-05-07T00:49:47.720Z,18.69
2019-05-07T00:50:47.707Z,18.49
2019-05-07T00:51:47.734Z,18.29
2019-05-07T00:52:47.686Z,18.29
2019-05-07T00:53:47.680Z,18.28
2019-05-07T00:54:47.670Z,18.39
2019-05-07T00:55:47.660Z,18.39
2019-05-07T00:56:47.649Z,17.49
2019-05-07T00:57:47.796Z,18.58
2019-05-07T00:58:47.624Z,18.48
2019-05-07T00:59:47.611Z,18.48
2019-05-07T01:00:47.598Z,18.48
2019-05-07T01:01:47.590Z,18.59
2019-05-07T01:02:47.578Z,18.39
2019-05-07T01:03:47.576Z,18.39
2019-05-07T01:04:47.557Z,18.19
2019-05-07T01:05:47.545Z,18.29
2019-05-07T01:06:47.571Z,18.99
2019-05-07T01:07:47.524Z,18.38
2019-05-07T01:08:47.505Z,18.29
2019-05-07T01:09:47.497Z,18.38
2019-05-07T01:10:47.484Z,18.29
2019-05-07T01:11:47.477Z,18.58
2019-05-07T01:12:47.479Z,18.29
2019-05-07T01:13:47.457Z,18.39
2019-05-07T01:14:47.444Z,18.39
2019-05-07T01:15:47.430Z,18.49
2019-05-07T01:16:47.422Z,18.39
2019-05-07T01:17:59.411Z,18.59
2019-05-07T01:18:47.401Z,18.29
2019-05-07T01:19:47.390Z,18.69
2019-05-07T01:20:47.374Z,18.58
2019-05-07T01:21:47.365Z,18.68
2019-05-07T01:22:47.354Z,18.99
2019-05-07T01:23:47.349Z,18.69
2019-05-07T01:24:47.328Z,18.39
2019-05-07T01:25:47.323Z,18.49
2019-05-07T01:26:47.307Z,18.38
2019-05-07T01:27:47.292Z,18.49
2019-05-07T01:28:47.328Z,18.39
2019-05-07T01:29:47.269Z,18.29
2019-05-07T01:30:47.264Z,18.29
2019-05-07T01:31:47.250Z,18.39
2019-05-07T01:32:47.239Z,18.49
2019-05-07T01:33:47.231Z,18.49
2019-05-07T01:34:47.256Z,17.49
2019-05-07T01:35:47.206Z,18.28
2019-05-07T01:36:47.193Z,18.38
2019-05-07T01:37:47.186Z,18.58
2019-05-07T01:38:47.171Z,18.39
2019-05-07T01:39:47.158Z,18.29
2019-05-07T01:40:47.161Z,18.58
2019-05-07T01:41:47.143Z,18.29
2019-05-07T01:42:47.131Z,18.38
2019-05-07T01:43:47.113Z,18.29
2019-05-07T01:44:47.106Z,18.39
2019-05-07T01:45:49.801Z,18.39
2019-05-07T01:46:47.082Z,18.39
2019-05-07T01:47:47.073Z,18.38
2019-05-07T01:48:58.069Z,18.59
2019-05-07T01:49:47.046Z,18.69
2019-05-07T01:50:47.043Z,18.58
2019-05-07T01:51:47.071Z,18.99
2019-05-07T01:52:47.015Z,18.49
2019-05-07T01:53:47.002Z,18.49
2019-05-07T01:54:47.570Z,18.69
2019-05-07T01:55:46.981Z,18.29
2019-05-07T01:56:46.968Z,18.39
2019-05-07T01:57:46.996Z,18.39
2019-05-07T01:58:46.950Z,18.59
2019-05-07T01:59:46.938Z,18.39
2019-05-07T02:00:46.924Z,18.39
2019-05-07T02:01:46.918Z,18.39
2019-05-07T02:02:46.909Z,18.39
2019-05-07T02:03:46.937Z,18.68
2019-05-07T02:04:46.883Z,18.38
2019-05-07T02:05:46.868Z,18.29
2019-05-07T02:06:46.863Z,18.39
2019-05-07T02:07:46.849Z,17.68
2019-05-07T02:08:46.840Z,18.29
2019-05-07T02:09:46.832Z,18.69
2019-05-07T02:10:46.818Z,18.29
2019-05-07T02:11:46.803Z,18.49
2019-05-07T02:12:46.798Z,18.28
2019-05-07T02:13:46.783Z,18.38
2019-05-07T02:14:46.807Z,18.78
2019-05-07T02:15:57.270Z,18.39
2019-05-07T02:16:47.753Z,18.59
2019-05-07T02:17:46.736Z,18.38
2019-05-07T02:18:46.723Z,18.48
2019-05-07T02:19:57.966Z,18.79
2019-05-07T02:20:46.706Z,18.69
2019-05-07T02:21:46.696Z,18.48
2019-05-07T02:22:46.682Z,18.59
2019-05-07T02:23:46.668Z,18.69
2019-05-07T02:24:46.662Z,18.19
2019-05-07T02:25:46.655Z,18.28
2019-05-07T02:26:46.647Z,18.38
2019-05-07T02:27:46.625Z,18.29
2019-05-07T02:28:46.612Z,18.59
2019-05-07T02:29:46.607Z,18.38
2019-05-07T02:30:46.606Z,18.29
2019-05-07T02:31:46.589Z,18.38
2019-05-07T02:32:46.593Z,18.49
2019-05-07T02:33:46.568Z,18.39
2019-05-07T02:34:46.556Z,18.28
2019-05-07T02:35:46.548Z,18.38
2019-05-07T02:36:46.532Z,18.28
2019-05-07T02:37:51.996Z,18.58
2019-05-07T02:38:47.545Z,18.39
2019-05-07T02:39:46.500Z,18.59
2019-05-07T02:40:46.487Z,18.49
2019-05-07T02:41:46.473Z,18.49
2019-05-07T02:42:46.469Z,18.39
2019-05-07T02:43:46.451Z,18.59
2019-05-07T02:44:46.487Z,18.29
2019-05-07T02:45:46.443Z,18.39
2019-05-07T02:46:46.421Z,18.58
2019-05-07T02:47:46.413Z,18.49
2019-05-07T02:48:46.403Z,18.39
2019-05-07T02:49:46.398Z,18.29
2019-05-07T02:50:57.020Z,18.49
2019-05-07T02:51:46.370Z,18.69
2019-05-07T02:52:46.362Z,18.99
2019-05-07T02:53:46.433Z,18.99
2019-05-07T02:54:46.335Z,18.99
2019-05-07T02:55:46.326Z,18.99
2019-05-07T02:56:46.328Z,18.48
2019-05-07T02:57:46.306Z,18.79
2019-05-07T02:58:46.296Z,18.58
2019-05-07T02:59:46.286Z,18.49
2019-05-07T03:00:46.279Z,18.49
2019-05-07T03:01:46.305Z,18.28
2019-05-07T03:02:46.257Z,18.49
2019-05-07T03:03:46.234Z,18.29
2019-05-07T03:04:46.227Z,18.49
2019-05-07T03:05:46.232Z,18.39
2019-05-07T03:06:46.202Z,18.59
2019-05-07T03:07:46.231Z,18.59
2019-05-07T03:08:46.185Z,18.38
2019-05-07T03:09:46.181Z,18.38
2019-05-07T03:10:46.167Z,18.28
2019-05-07T03:11:46.151Z,17.68
2019-05-07T03:12:46.134Z,18.38
2019-05-07T03:13:46.163Z,18.58
2019-05-07T03:14:46.119Z,18.48
2019-05-07T03:15:46.113Z,18.48
2019-05-07T03:16:49.514Z,17.98
2019-05-07T03:17:46.081Z,18.48
2019-05-07T03:18:46.074Z,18.48
2019-05-07T03:19:46.075Z,18.48
2019-05-07T03:20:46.054Z,18.68
2019-05-07T03:21:56.480Z,18.38
2019-05-07T03:22:46.028Z,18.48
2019-05-07T03:23:46.012Z,18.48
2019-05-07T03:24:46.012Z,18.48
2019-05-07T03:25:46.033Z,18.48
2019-05-07T03:26:45.980Z,18.38
2019-05-07T03:27:45.968Z,18.59
2019-05-07T03:28:45.961Z,18.48
2019-05-07T03:29:45.948Z,18.48
2019-05-07T03:30:46.152Z,18.48
2019-05-07T03:31:47.063Z,18.38
2019-05-07T03:32:47.909Z,18.68
2019-05-07T03:33:47.456Z,18.49
2019-05-07T03:34:47.114Z,18.48
2019-05-07T03:35:47.228Z,18.58
2019-05-07T03:36:48.038Z,18.48
2019-05-07T03:37:45.876Z,18.48
2019-05-07T03:38:45.844Z,18.49
2019-05-07T03:39:45.839Z,18.68
2019-05-07T03:40:45.827Z,18.68
2019-05-07T03:41:45.824Z,19.18
2019-05-07T03:42:45.808Z,18.48
2019-05-07T03:43:45.799Z,18.29
2019-05-07T03:44:45.783Z,18.28
2019-05-07T03:45:45.768Z,18.28
2019-05-07T03:46:57.672Z,18.48
2019-05-07T03:47:46.754Z,18.28
2019-05-07T03:48:45.737Z,18.69
2019-05-07T03:49:45.727Z,18.08
2019-05-07T03:50:45.713Z,18.39
2019-05-07T03:51:45.700Z,18.48
2019-05-07T03:52:56.593Z,18.38
2019-05-07T03:53:45.685Z,18.29
2019-05-07T03:54:45.674Z,18.48
2019-05-07T03:55:45.662Z,18.69
2019-05-07T03:56:45.654Z,18.69
2019-05-07T03:57:45.649Z,19.19
2019-05-07T03:58:45.667Z,18.58
2019-05-07T03:59:45.614Z,18.49
2019-05-07T04:00:45.602Z,18.69
2019-05-07T04:01:45.588Z,18.39
2019-05-07T04:02:45.579Z,18.69
2019-05-07T04:03:45.573Z,18.49
2019-05-07T04:04:45.596Z,18.29
2019-05-07T04:05:45.580Z,18.28
2019-05-07T04:06:45.537Z,18.49
2019-05-07T04:07:45.525Z,18.48
2019-05-07T04:08:45.514Z,18.49
2019-05-07T04:09:45.542Z,18.98
2019-05-07T04:10:45.488Z,18.59
2019-05-07T04:11:45.478Z,18.99
2019-05-07T04:12:45.470Z,18.49
2019-05-07T04:13:45.454Z,18.58
2019-05-07T04:14:45.444Z,18.19
2019-05-07T04:15:45.468Z,18.48
2019-05-07T04:16:45.427Z,18.79
2019-05-07T04:17:45.409Z,18.88
2019-05-07T04:18:45.407Z,18.49
2019-05-07T04:19:45.387Z,18.99
2019-05-07T04:20:45.377Z,18.58
2019-05-07T04:21:45.388Z,18.59
2019-05-07T04:22:46.079Z,17.99
2019-05-07T04:23:58.000Z,18.29
2019-05-07T04:24:45.333Z,18.39
2019-05-07T04:25:45.331Z,18.39
2019-05-07T04:26:45.307Z,18.49
2019-05-07T04:27:47.186Z,18.39
2019-05-07T04:28:45.287Z,18.39
2019-05-07T04:29:45.285Z,18.19
2019-05-07T04:30:45.264Z,18.49
2019-05-07T04:31:45.261Z,18.99
2019-05-07T04:32:45.247Z,18.99
2019-05-07T04:33:45.255Z,19.09
2019-05-07T04:34:45.236Z,18.08
2019-05-07T04:35:45.211Z,19.18
2019-05-07T04:36:45.200Z,19.09
2019-05-07T04:37:45.187Z,18.49
2019-05-07T04:38:45.175Z,18.99
2019-05-07T04:39:45.217Z,18.78
2019-05-07T04:40:45.158Z,19.09
2019-05-07T04:41:45.142Z,18.29
2019-05-07T04:42:45.138Z,18.19
2019-05-07T04:43:45.123Z,19.48
2019-05-07T04:44:45.116Z,18.99
2019-05-07T04:45:45.144Z,18.29
2019-05-07T04:46:48.167Z,18.79
2019-05-07T04:47:47.771Z,18.59
2019-05-07T04:48:45.071Z,18.28
2019-05-07T04:49:45.061Z,19.08
2019-05-07T04:50:47.815Z,18.99
2019-05-07T04:51:45.042Z,19.49
2019-05-07T04:52:45.020Z,19.09
2019-05-07T04:53:45.025Z,17.98
2019-05-07T04:54:56.368Z,18.58
2019-05-07T04:55:44.996Z,19.48
2019-05-07T04:56:44.992Z,18.59
2019-05-07T04:57:45.012Z,18.08
2019-05-07T04:58:44.966Z,18.08
2019-05-07T04:59:44.947Z,19.09
2019-05-07T05:00:44.935Z,18.08
2019-05-07T05:01:44.932Z,19.09
2019-05-07T05:02:44.914Z,19.48
2019-05-07T05:03:44.915Z,18.88
2019-05-07T05:04:44.893Z,18.29
2019-05-07T05:05:44.879Z,18.58
2019-05-07T05:06:44.880Z,18.29
2019-05-07T05:07:44.867Z,18.29
2019-05-07T05:08:44.887Z,18.39
2019-05-07T05:09:44.836Z,18.38
2019-05-07T05:10:44.825Z,19.19
2019-05-07T05:11:44.816Z,18.99
2019-05-07T05:12:44.806Z,19.09
2019-05-07T05:13:45.067Z,19.09
2019-05-07T05:14:44.794Z,19.38
2019-05-07T05:15:44.768Z,18.39
2019-05-07T05:16:44.758Z,19.48
2019-05-07T05:17:50.479Z,19.18
2019-05-07T05:18:45.734Z,19.18
2019-05-07T05:19:44.725Z,18.18
2019-05-07T05:20:44.756Z,18.18
2019-05-07T05:21:44.705Z,19.57
2019-05-07T05:22:44.689Z,18.08
2019-05-07T05:23:44.679Z,18.58
2019-05-07T05:24:44.668Z,18.08
2019-05-07T05:25:55.749Z,18.48
2019-05-07T05:26:44.653Z,18.38
2019-05-07T05:27:44.639Z,19.38
2019-05-07T05:28:44.629Z,19.08
2019-05-07T05:29:44.612Z,18.08
2019-05-07T05:30:44.606Z,18.08
2019-05-07T05:31:44.599Z,19.08
2019-05-07T05:32:44.582Z,19.18
2019-05-07T05:33:44.579Z,19.08
2019-05-07T05:34:44.562Z,18.08
2019-05-07T05:35:44.550Z,18.47
2019-05-07T05:36:44.579Z,18.78
2019-05-07T05:37:44.531Z,18.37
2019-05-07T05:38:44.518Z,18.07
2019-05-07T05:39:44.509Z,19.17
2019-05-07T05:40:44.493Z,18.28
2019-05-07T05:41:44.484Z,18.47
2019-05-07T05:42:44.510Z,19.47
2019-05-07T05:43:44.456Z,18.27
2019-05-07T05:44:44.445Z,18.67
2019-05-07T05:45:44.439Z,18.67
2019-05-07T05:46:44.424Z,18.17
2019-05-07T05:47:45.019Z,19.57
2019-05-07T05:48:44.497Z,17.97
2019-05-07T05:49:44.391Z,19.27
2019-05-07T05:50:44.379Z,18.87
2019-05-07T05:51:44.370Z,18.07
2019-05-07T05:52:44.360Z,18.47
2019-05-07T05:53:44.344Z,19.27
2019-05-07T05:54:44.350Z,19.57
2019-05-07T05:55:44.326Z,18.57
2019-05-07T05:56:54.227Z,17.87
2019-05-07T05:57:44.303Z,19.47
2019-05-07T05:58:44.294Z,17.77
2019-05-07T05:59:49.158Z,17.87
2019-05-07T06:00:45.278Z,18.77
2019-05-07T06:01:44.260Z,19.47
2019-05-07T06:02:44.263Z,18.67
2019-05-07T06:03:44.242Z,19.57
2019-05-07T06:04:44.234Z,18.87
2019-05-07T06:05:44.230Z,18.77
2019-05-07T06:06:44.203Z,19.57
2019-05-07T06:07:44.195Z,18.57
2019-05-07T06:08:44.187Z,19.37
2019-05-07T06:09:44.180Z,18.57
2019-05-07T06:10:44.162Z,18.47
2019-05-07T06:11:44.153Z,18.47
2019-05-07T06:12:44.144Z,18.47
2019-05-07T06:13:44.143Z,18.87
2019-05-07T06:14:44.127Z,18.87
2019-05-07T06:15:44.104Z,18.56
2019-05-07T06:16:44.107Z,18.56
2019-05-07T06:17:44.087Z,18.57
2019-05-07T06:18:44.110Z,18.76
2019-05-07T06:19:44.067Z,18.56
2019-05-07T06:20:44.050Z,18.47
2019-05-07T06:21:44.044Z,18.77
2019-05-07T06:22:44.030Z,18.87
2019-05-07T06:23:44.013Z,18.56
2019-05-07T06:24:44.043Z,19.27
2019-05-07T06:25:43.994Z,18.57
2019-05-07T06:26:43.993Z,18.66
2019-05-07T06:27:55.280Z,18.46
2019-05-07T06:28:43.960Z,18.46
2019-05-07T06:29:43.963Z,18.47
2019-05-07T06:30:43.962Z,18.46
2019-05-07T06:31:43.927Z,18.56
2019-05-07T06:32:43.912Z,18.56
2019-05-07T06:33:43.901Z,18.76
2019-05-07T06:34:44.698Z,18.66
2019-05-07T06:35:43.882Z,18.67
2019-05-07T06:36:43.887Z,18.66
2019-05-07T06:37:43.863Z,18.67
2019-05-07T06:38:43.855Z,18.36
2019-05-07T06:39:43.841Z,18.16
2019-05-07T06:40:43.831Z,18.67
2019-05-07T06:41:43.813Z,18.76
2019-05-07T06:42:43.814Z,18.66
2019-05-07T06:43:43.791Z,18.87
2019-05-07T06:44:43.788Z,18.86
2019-05-07T06:45:43.770Z,18.66
2019-05-07T06:46:43.778Z,18.77
2019-05-07T06:47:43.749Z,18.86
2019-05-07T06:48:46.276Z,18.66
2019-05-07T06:49:43.737Z,18.77
2019-05-07T06:50:43.723Z,18.66
2019-05-07T06:51:43.709Z,18.76
2019-05-07T06:52:43.732Z,18.66
2019-05-07T06:53:43.684Z,18.66
2019-05-07T06:54:43.667Z,18.36
2019-05-07T06:55:43.667Z,18.76
2019-05-07T06:56:43.649Z,18.86
2019-05-07T06:57:43.696Z,18.36
2019-05-07T06:58:53.877Z,18.66
2019-05-07T06:59:43.613Z,18.46
2019-05-07T07:00:43.604Z,18.16
2019-05-07T07:01:43.597Z,18.66
2019-05-07T07:02:43.583Z,18.36
2019-05-07T07:03:43.567Z,18.66
2019-05-07T07:04:43.574Z,18.76
2019-05-07T07:05:43.546Z,18.66
2019-05-07T07:06:43.539Z,18.76
2019-05-07T07:07:43.527Z,18.76
2019-05-07T07:08:43.511Z,18.36
2019-05-07T07:09:43.505Z,18.86
2019-05-07T07:10:43.532Z,18.86
2019-05-07T07:11:43.502Z,18.86
2019-05-07T07:12:43.467Z,18.86
2019-05-07T07:13:43.465Z,18.56
2019-05-07T07:14:43.454Z,18.96
2019-05-07T07:15:43.437Z,18.76
2019-05-07T07:16:43.449Z,18.46
2019-05-07T07:17:43.414Z,18.96
2019-05-07T07:18:51.992Z,18.86
2019-05-07T07:19:44.400Z,19.16
2019-05-07T07:20:43.393Z,18.86
2019-05-07T07:21:43.369Z,18.86
2019-05-07T07:22:43.403Z,18.66
2019-05-07T07:23:43.353Z,18.86
2019-05-07T07:24:43.339Z,18.96
2019-05-07T07:25:43.332Z,18.66
2019-05-07T07:26:43.313Z,18.66
2019-05-07T07:27:43.304Z,19.16
2019-05-07T07:28:43.298Z,18.86
2019-05-07T07:29:53.132Z,18.76
2019-05-07T07:30:43.268Z,18.56
2019-05-07T07:31:43.263Z,18.56
2019-05-07T07:32:43.254Z,18.36
2019-05-07T07:33:43.737Z,18.56
2019-05-07T07:34:43.224Z,18.36
2019-05-07T07:35:43.211Z,18.46
2019-05-07T07:36:43.202Z,19.16
2019-05-07T07:37:43.192Z,19.16
2019-05-07T07:38:43.221Z,18.76
2019-05-07T07:39:43.168Z,18.66
2019-05-07T07:40:43.157Z,18.76
2019-05-07T07:41:43.149Z,18.76
2019-05-07T07:42:43.139Z,18.86
2019-05-07T07:43:43.126Z,18.76
2019-05-07T07:44:43.152Z,18.76
2019-05-07T07:45:43.100Z,18.76
2019-05-07T07:46:43.091Z,18.76
2019-05-07T07:47:43.080Z,18.56
2019-05-07T07:48:43.612Z,18.66
2019-05-07T07:49:43.055Z,18.76
2019-05-07T07:50:43.090Z,18.56
2019-05-07T07:51:45.558Z,18.66
2019-05-07T07:52:43.029Z,18.56
2019-05-07T07:53:43.013Z,18.76
2019-05-07T07:54:43.053Z,18.76
2019-05-07T07:55:42.996Z,18.66
2019-05-07T07:56:51.830Z,18.76
2019-05-07T07:57:43.970Z,18.76
2019-05-07T07:58:42.963Z,18.66
2019-05-07T07:59:42.954Z,18.66
2019-05-07T08:00:54.452Z,18.66
2019-05-07T08:01:42.929Z,18.96
2019-05-07T08:02:42.924Z,18.66
2019-05-07T08:03:42.904Z,18.96
2019-05-07T08:04:42.889Z,18.86
2019-05-07T08:05:42.909Z,18.56
2019-05-07T08:06:42.867Z,18.66
2019-05-07T08:07:42.898Z,18.76
2019-05-07T08:08:42.848Z,18.56
2019-05-07T08:09:43.049Z,18.76
2019-05-07T08:10:42.822Z,18.76
2019-05-07T08:11:42.813Z,18.96
2019-05-07T08:12:42.804Z,18.56
2019-05-07T08:13:42.832Z,18.76
2019-05-07T08:14:42.950Z,18.76
2019-05-07T08:15:43.017Z,18.96
2019-05-07T08:16:43.141Z,19.06
2019-05-07T08:17:42.742Z,18.86
2019-05-07T08:18:43.591Z,18.96
2019-05-07T08:19:43.054Z,19.26
2019-05-07T08:20:43.139Z,18.96
2019-05-07T08:21:42.705Z,18.96
2019-05-07T08:22:42.688Z,19.06
2019-05-07T08:23:42.680Z,18.96
2019-05-07T08:24:42.870Z,19.46
2019-05-07T08:25:42.733Z,18.96
2019-05-07T08:26:42.995Z,18.95
2019-05-07T08:27:42.638Z,18.96
2019-05-07T08:28:42.619Z,18.76
2019-05-07T08:29:43.132Z,18.96
2019-05-07T08:30:42.600Z,18.96
2019-05-07T08:31:52.877Z,18.76
2019-05-07T08:32:42.807Z,18.86
2019-05-07T08:33:42.653Z,18.96
2019-05-07T08:34:42.876Z,18.96
2019-05-07T08:35:42.565Z,18.76
2019-05-07T08:36:42.528Z,18.85
2019-05-07T08:37:42.758Z,18.96
2019-05-07T08:38:42.677Z,18.96
2019-05-07T08:39:42.982Z,18.96
2019-05-07T08:40:42.491Z,18.96
2019-05-07T08:41:42.493Z,18.55
2019-05-07T08:42:42.465Z,19.46
2019-05-07T08:43:42.788Z,19.46
2019-05-07T08:44:43.003Z,19.45
2019-05-07T08:45:43.191Z,19.46
2019-05-07T08:46:42.419Z,19.46
2019-05-07T08:47:42.624Z,19.55
2019-05-07T08:48:42.527Z,19.05
2019-05-07T08:49:43.296Z,19.06
2019-05-07T08:50:42.373Z,19.05
2019-05-07T08:51:42.666Z,19.56
2019-05-07T08:52:42.351Z,19.16
2019-05-07T08:53:42.387Z,19.06
2019-05-07T08:54:42.797Z,18.75
2019-05-07T08:55:42.508Z,19.45
2019-05-07T08:56:42.587Z,19.46
2019-05-07T08:57:42.298Z,19.06
2019-05-07T08:58:42.295Z,19.15
2019-05-07T08:59:46.788Z,19.16
2019-05-07T09:00:43.262Z,19.16
2019-05-07T09:01:43.240Z,19.35
2019-05-07T09:02:55.121Z,19.06
2019-05-07T09:03:42.924Z,19.06
2019-05-07T09:04:42.219Z,19.46
2019-05-07T09:05:42.640Z,19.16
2019-05-07T09:06:43.057Z,19.16
2019-05-07T09:07:42.589Z,19.16
2019-05-07T09:08:43.632Z,19.26
2019-05-07T09:09:42.633Z,18.86
2019-05-07T09:10:42.328Z,19.36
2019-05-07T09:11:42.690Z,19.36
2019-05-07T09:12:42.929Z,19.26
2019-05-07T09:13:42.194Z,19.26
2019-05-07T09:14:42.669Z,19.16
2019-05-07T09:15:42.523Z,19.56
2019-05-07T09:16:42.713Z,18.96
2019-05-07T09:17:42.377Z,18.96
2019-05-07T09:18:42.279Z,19.26
2019-05-07T09:19:50.680Z,19.26
2019-05-07T09:20:43.037Z,18.96
2019-05-07T09:21:42.897Z,19.26
2019-05-07T09:22:42.678Z,19.26
2019-05-07T09:23:42.515Z,19.26
2019-05-07T09:24:42.564Z,19.36
2019-05-07T09:25:41.987Z,19.26
2019-05-07T09:26:41.972Z,18.96
2019-05-07T09:27:42.494Z,18.96
2019-05-07T09:28:41.948Z,19.35
2019-05-07T09:29:42.672Z,19.45
2019-05-07T09:30:42.140Z,19.45
2019-05-07T09:31:42.082Z,19.45
2019-05-07T09:32:42.513Z,19.65
2019-05-07T09:33:53.604Z,19.35
2019-05-07T09:34:41.886Z,19.26
2019-05-07T09:35:42.429Z,19.35
2019-05-07T09:36:42.446Z,19.15
2019-05-07T09:37:42.122Z,19.16
2019-05-07T09:38:55.230Z,19.45
2019-05-07T09:39:42.827Z,19.46
2019-05-07T09:40:42.213Z,19.46
2019-05-07T09:41:41.854Z,19.45
2019-05-07T09:42:42.282Z,19.35
2019-05-07T09:43:42.447Z,19.46
2019-05-07T09:44:42.450Z,19.25
2019-05-07T09:45:42.196Z,19.36
2019-05-07T09:46:43.013Z,19.46
2019-05-07T09:47:41.939Z,19.15
2019-05-07T09:48:41.793Z,19.46
2019-05-07T09:49:41.965Z,19.45
2019-05-07T09:50:42.766Z,19.45
2019-05-07T09:51:42.706Z,19.45
2019-05-07T09:52:42.695Z,19.05
2019-05-07T09:53:42.467Z,19.05
2019-05-07T09:54:42.814Z,19.15
2019-05-07T09:55:42.749Z,19.16
2019-05-07T09:56:42.251Z,19.15
2019-05-07T09:57:42.462Z,19.06
2019-05-07T09:58:42.573Z,19.15
2019-05-07T09:59:42.626Z,19.25
2019-05-07T10:00:42.504Z,19.15
2019-05-07T10:01:41.584Z,19.05
2019-05-07T10:02:42.503Z,19.15
2019-05-07T10:03:42.961Z,19.16
2019-05-07T10:04:52.706Z,19.15
2019-05-07T10:05:42.691Z,19.46
2019-05-07T10:06:42.473Z,19.35
2019-05-07T10:07:42.399Z,19.15
2019-05-07T10:08:41.999Z,19.16
2019-05-07T10:09:42.711Z,19.15
2019-05-07T10:10:41.727Z,19.16
2019-05-07T10:11:41.473Z,19.15
2019-05-07T10:12:42.092Z,19.25
2019-05-07T10:13:42.038Z,19.05
2019-05-07T10:14:42.065Z,19.05
2019-05-07T10:15:41.863Z,19.05
2019-05-07T10:16:41.847Z,19.15
2019-05-07T10:17:41.400Z,19.25
2019-05-07T10:18:42.738Z,19.35
2019-05-07T10:19:41.712Z,19.05
2019-05-07T10:20:42.195Z,18.85
2019-05-07T10:21:42.567Z,19.05
2019-05-07T10:22:42.844Z,18.85
2019-05-07T10:23:41.738Z,19.05
2019-05-07T10:24:41.918Z,19.05
2019-05-07T10:25:41.315Z,18.95
2019-05-07T10:26:42.845Z,19.15
2019-05-07T10:27:41.835Z,19.15
2019-05-07T10:28:42.484Z,19.25
2019-05-07T10:29:42.804Z,18.85
2019-05-07T10:30:42.827Z,19.05
2019-05-07T10:31:42.376Z,18.95
2019-05-07T10:32:42.094Z,19.05
2019-05-07T10:33:42.178Z,19.15
2019-05-07T10:34:42.223Z,18.95
2019-05-07T10:35:54.609Z,19.35
2019-05-07T10:36:42.191Z,19.15
2019-05-07T10:37:42.233Z,19.05
2019-05-07T10:38:41.214Z,19.06
2019-05-07T10:39:42.982Z,18.95
2019-05-07T10:40:41.150Z,19.15
2019-05-07T10:41:42.502Z,18.96
2019-05-07T10:42:42.987Z,19.05
2019-05-07T10:43:42.836Z,19.06
2019-05-07T10:44:43.183Z,18.86
2019-05-07T10:45:42.159Z,19.06
2019-05-07T10:46:42.291Z,18.95
2019-05-07T10:47:41.875Z,18.85
2019-05-07T10:48:41.055Z,19.15
2019-05-07T10:49:42.251Z,19.25
2019-05-07T10:50:42.504Z,19.15
2019-05-07T10:51:42.518Z,19.05
2019-05-07T10:52:42.484Z,18.85
2019-05-07T10:53:42.464Z,19.76
2019-05-07T10:54:40.991Z,19.25
2019-05-07T10:55:41.995Z,18.75
2019-05-07T10:56:41.870Z,18.85
2019-05-07T10:57:42.235Z,19.75
2019-05-07T10:58:41.761Z,18.76
2019-05-07T10:59:42.222Z,19.75
2019-05-07T11:00:42.118Z,19.75
2019-05-07T11:01:42.555Z,18.85
2019-05-07T11:02:42.599Z,19.55
2019-05-07T11:03:40.888Z,19.55
2019-05-07T11:04:43.576Z,19.85
2019-05-07T11:05:41.884Z,19.65
2019-05-07T11:06:52.296Z,19.25
2019-05-07T11:07:42.228Z,19.25
2019-05-07T11:08:42.742Z,19.25
2019-05-07T11:09:42.029Z,19.06
2019-05-07T11:10:41.872Z,18.96
2019-05-07T11:11:42.331Z,19.65
2019-05-07T11:12:42.523Z,19.05
2019-05-07T11:13:42.228Z,19.65
2019-05-07T11:14:40.770Z,20.05
2019-05-07T11:15:42.787Z,19.65
2019-05-07T11:16:42.974Z,19.65
2019-05-07T11:17:41.902Z,19.55
2019-05-07T11:18:42.574Z,19.75
2019-05-07T11:19:41.691Z,19.96
2019-05-07T11:20:49.854Z,19.45
2019-05-07T11:21:41.962Z,20.06
2019-05-07T11:22:42.753Z,19.45
2019-05-07T11:23:41.904Z,20.05
2019-05-07T11:24:42.720Z,19.45
2019-05-07T11:25:42.091Z,20.05
2019-05-07T11:26:41.977Z,19.45
2019-05-07T11:27:42.122Z,20.05
2019-05-07T11:28:40.609Z,20.05
2019-05-07T11:29:42.836Z,19.45
2019-05-07T11:30:42.542Z,19.65
2019-05-07T11:31:42.382Z,19.75
2019-05-07T11:32:42.784Z,19.55
2019-05-07T11:33:41.684Z,19.45
2019-05-07T11:34:42.244Z,19.25
2019-05-07T11:35:42.264Z,19.55
2019-05-07T11:36:42.538Z,19.75
2019-05-07T11:37:52.061Z,19.75
2019-05-07T11:38:41.887Z,19.75
2019-05-07T11:39:42.657Z,19.75
2019-05-07T11:40:42.671Z,20.05
2019-05-07T11:41:42.255Z,19.85
2019-05-07T11:42:42.664Z,19.75
2019-05-07T11:43:40.441Z,19.65
2019-05-07T11:44:42.323Z,19.55
2019-05-07T11:45:40.421Z,20.05
2019-05-07T11:46:41.574Z,19.65
2019-05-07T11:47:40.396Z,19.45
2019-05-07T11:48:42.489Z,19.95
2019-05-07T11:49:41.713Z,19.75
2019-05-07T11:50:42.190Z,19.74
2019-05-07T11:51:42.503Z,18.84
2019-05-07T11:52:42.432Z,19.74
2019-05-07T11:53:41.904Z,19.95
2019-05-07T11:54:42.065Z,19.94
2019-05-07T11:55:42.065Z,19.55
2019-05-07T11:56:42.292Z,19.94
2019-05-07T11:57:44.156Z,19.65
2019-05-07T11:58:40.319Z,19.64
2019-05-07T11:59:41.829Z,19.54
2019-05-07T12:00:42.466Z,19.44
2019-05-07T12:01:46.578Z,19.34
2019-05-07T12:02:42.382Z,18.94
2019-05-07T12:03:40.223Z,19.54
2019-05-07T12:04:42.139Z,19.54
2019-05-07T12:05:42.123Z,19.74
2019-05-07T12:06:40.194Z,19.64
2019-05-07T12:07:41.920Z,19.34
2019-05-07T12:08:52.234Z,19.74
2019-05-07T12:09:40.157Z,19.44
2019-05-07T12:10:40.182Z,19.54
2019-05-07T12:11:40.133Z,19.74
2019-05-07T12:12:40.121Z,19.74
2019-05-07T12:13:40.116Z,19.64
2019-05-07T12:14:40.101Z,19.74
2019-05-07T12:15:40.094Z,19.74
2019-05-07T12:16:42.359Z,19.54
2019-05-07T12:17:40.068Z,18.74
2019-05-07T12:18:40.058Z,19.34
2019-05-07T12:19:43.710Z,19.44
2019-05-07T12:20:40.040Z,19.34
2019-05-07T12:21:42.028Z,19.25
2019-05-07T12:22:40.016Z,19.14
2019-05-07T12:23:42.022Z,19.45
2019-05-07T12:24:41.762Z,19.34
2019-05-07T12:25:42.211Z,19.14
2019-05-07T12:26:41.724Z,19.25
2019-05-07T12:27:39.970Z,19.24
2019-05-07T12:28:41.782Z,19.35
2019-05-07T12:29:39.940Z,19.35
2019-05-07T12:30:39.923Z,19.44
2019-05-07T12:31:41.682Z,19.64
2019-05-07T12:32:39.923Z,19.75
2019-05-07T12:33:39.889Z,19.65
2019-05-07T12:34:39.878Z,18.84
2019-05-07T12:35:41.977Z,19.95
2019-05-07T12:36:39.864Z,19.85
2019-05-07T12:37:39.845Z,19.75
2019-05-07T12:38:41.666Z,19.55
2019-05-07T12:39:50.223Z,19.35
2019-05-07T12:40:41.786Z,19.85
2019-05-07T12:41:41.745Z,19.35
2019-05-07T12:42:42.031Z,19.25
2019-05-07T12:43:39.781Z,19.75
2019-05-07T12:44:39.809Z,19.35
2019-05-07T12:45:41.991Z,19.45
2019-05-07T12:46:42.104Z,19.35
2019-05-07T12:47:39.735Z,19.55
2019-05-07T12:48:39.724Z,19.55
2019-05-07T12:49:39.719Z,19.56
2019-05-07T12:50:39.730Z,19.55
2019-05-07T12:51:39.701Z,19.55
2019-05-07T12:52:39.684Z,19.45